Time;durP1;ratioP1;P1;durP2;ratioP2;P2;SDS_P1;SDS_P2;PMS_P1;PMS_P2;Temp;Humidity;BMP_temperature;BMP_pressure;BME280_temperature;BME280_humidity;BME280_pressure;Samples;Min_cycle;Max_cycle;Signal;HPM_P1;HPM_P2
2021/07/26 00:02:19;;;;;;;47.25;28.87;;;;;;;20.57;73.65;100194.41;1662602;85;21480;-73
2021/07/26 00:04:45;;;;;;;49.73;31.17;;;;;;;20.57;73.32;100194.41;1652971;85;21071;-72
2021/07/26 00:07:13;;;;;;;35.35;25.27;;;;;;;20.57;73.49;100195.22;1676658;85;20943;-71
2021/07/26 00:09:39;;;;;;;35.20;27.13;;;;;;;20.55;73.20;100189.23;1652916;85;21058;-71
2021/07/26 00:12:09;;;;;;;38.10;25.00;;;;;;;20.56;73.18;100195.52;1676855;85;20942;-72
2021/07/26 00:14:37;;;;;;;32.30;24.37;;;;;;;20.60;72.94;100196.52;1676553;84;21015;-72
2021/07/26 00:17:03;;;;;;;28.73;21.23;;;;;;;20.64;72.59;100198.34;1652844;85;21250;-72
2021/07/26 00:19:31;;;;;;;31.00;21.55;;;;;;;20.69;72.18;100202.89;1676377;85;20996;-72
2021/07/26 00:21:57;;;;;;;32.42;20.55;;;;;;;20.71;71.91;100200.13;1676914;85;21600;-72
2021/07/26 00:24:26;;;;;;;28.35;21.60;;;;;;;20.77;71.78;100196.16;1676149;85;21549;-72
2021/07/26 00:26:54;;;;;;;31.68;21.70;;;;;;;20.80;71.38;100195.56;1674832;85;20956;-74
2021/07/26 00:29:22;;;;;;;43.17;25.72;;;;;;;20.80;71.38;100195.56;1674879;85;21528;-71
2021/07/26 00:31:50;;;;;;;43.98;25.95;;;;;;;20.81;71.11;100197.16;1674757;85;21040;-75
2021/07/26 00:34:27;;;;;;;50.65;28.55;;;;;;;20.83;71.07;100192.77;1676034;85;21398;-72
2021/07/26 00:36:56;;;;;;;48.65;30.48;;;;;;;20.85;71.11;100195.45;1676369;85;21069;-73
2021/07/26 00:39:26;;;;;;;46.25;27.60;;;;;;;20.85;71.07;100191.36;1676278;84;21065;-71
2021/07/26 00:41:53;;;;;;;59.00;30.45;;;;;;;20.91;71.08;100194.77;1675828;85;21347;-72
2021/07/26 00:44:21;;;;;;;61.92;31.37;;;;;;;20.97;70.86;100191.38;1676672;85;21094;-73
2021/07/26 00:46:49;;;;;;;46.92;29.12;;;;;;;20.97;70.86;100191.38;1676616;85;20951;-71
2021/07/26 00:49:17;;;;;;;46.60;29.02;;;;;;;20.98;70.86;100191.62;1652766;85;21495;-73
2021/07/26 00:51:49;;;;;;;53.10;28.65;;;;;;;20.98;70.66;100186.16;1676516;85;21636;-72
2021/07/26 00:54:21;;;;;;;49.37;29.23;;;;;;;20.99;70.49;100191.33;1676500;85;21523;-73
2021/07/26 00:56:50;;;;;;;44.43;28.30;;;;;;;20.98;70.47;100193.81;1675594;85;21497;-73
2021/07/26 00:59:17;;;;;;;43.90;26.97;;;;;;;21.04;70.42;100189.86;1651614;85;21539;-72
2021/07/26 01:01:43;;;;;;;51.68;28.55;;;;;;;21.06;70.22;100186.80;1676471;85;21020;-70
2021/07/26 01:04:09;;;;;;;52.10;28.87;;;;;;;20.98;70.35;100184.23;1657438;85;21042;-72
2021/07/26 01:06:37;;;;;;;44.63;27.82;;;;;;;20.64;72.00;100183.31;1653815;86;22018;-72
2021/07/26 01:09:03;;;;;;;45.38;26.52;;;;;;;20.64;72.00;100183.31;1658536;86;21525;-73
2021/07/26 01:11:31;;;;;;;52.50;29.50;;;;;;;20.54;72.78;100184.06;1619787;87;20983;-73
2021/07/26 01:13:59;;;;;;;52.65;27.98;;;;;;;20.45;73.03;100186.70;1619721;87;21055;-72
2021/07/26 01:16:26;;;;;;;45.45;26.02;;;;;;;20.33;73.05;100183.67;1609224;86;21113;-72
2021/07/26 01:18:52;;;;;;;47.03;29.02;;;;;;;20.25;73.63;100184.31;1636916;86;21222;-73
2021/07/26 01:21:19;;;;;;;52.08;26.65;;;;;;;20.17;74.30;100180.92;1657020;86;21563;-72
2021/07/26 01:23:48;;;;;;;38.35;24.45;;;;;;;20.12;74.34;100176.92;1661003;86;21040;-71
2021/07/26 01:26:18;;;;;;;44.08;24.52;;;;;;;20.10;74.26;100179.13;1661042;86;21096;-72
2021/07/26 01:29:06;;;;;;;46.15;25.52;;;;;;;20.07;74.44;100175.09;1660612;86;21067;-71
2021/07/26 01:31:33;;;;;;;53.50;25.43;;;;;;;20.05;74.21;100173.20;1633849;86;21192;-72
2021/07/26 01:34:00;;;;;;;50.03;23.30;;;;;;;20.01;74.47;100180.38;1660632;86;21542;-72
2021/07/26 01:36:27;;;;;;;43.83;24.92;;;;;;;19.98;74.38;100175.53;1633843;86;21520;-73
2021/07/26 01:38:53;;;;;;;47.30;22.98;;;;;;;19.96;74.37;100174.45;1660694;85;21039;-71
2021/07/26 01:41:22;;;;;;;44.70;21.90;;;;;;;19.97;74.39;100170.62;1625185;87;21131;-71
2021/07/26 01:44:03;;;;;;;39.38;21.55;;;;;;;19.95;74.22;100171.47;1649073;87;21135;-72
2021/07/26 01:46:44;;;;;;;36.08;19.35;;;;;;;19.93;74.26;100177.80;1655252;86;21567;-73
2021/07/26 01:49:55;;;;;;;40.48;19.17;;;;;;;19.99;74.07;100178.52;1660879;86;21057;-72
2021/07/26 01:52:21;;;;;;;44.38;20.32;;;;;;;19.99;74.24;100168.41;1661264;86;21003;-73
2021/07/26 01:54:48;;;;;;;30.00;21.00;;;;;;;19.91;74.68;100172.36;1633443;86;21026;-73
2021/07/26 01:57:14;;;;;;;35.63;20.97;;;;;;;19.83;75.18;100172.51;1634234;86;21039;-72
2021/07/26 01:59:41;;;;;;;46.73;22.87;;;;;;;19.79;75.15;100172.05;1623932;87;21109;-73
2021/07/26 02:02:07;;;;;;;35.30;20.12;;;;;;;19.74;75.59;100174.30;1650049;86;20996;-73
2021/07/26 02:04:33;;;;;;;37.48;21.40;;;;;;;19.70;75.78;100176.56;1653970;86;20968;-73
2021/07/26 02:07:00;;;;;;;26.42;17.67;;;;;;;19.65;75.91;100177.46;1660945;86;21574;-73
2021/07/26 02:09:26;;;;;;;36.28;20.32;;;;;;;19.68;75.65;100174.67;1634396;86;21886;-72
2021/07/26 02:11:52;;;;;;;43.08;21.37;;;;;;;19.73;75.38;100179.50;1661494;86;20982;-72
2021/07/26 02:14:18;;;;;;;33.40;21.15;;;;;;;19.75;75.22;100178.66;1628706;87;21052;-72
2021/07/26 02:16:52;;;;;;;39.80;21.68;;;;;;;19.76;75.54;100177.53;1649290;86;21039;-72
2021/07/26 02:19:19;;;;;;;32.73;21.20;;;;;;;19.78;75.51;100176.69;1600797;87;21508;-73
2021/07/26 02:21:46;;;;;;;26.27;18.30;;;;;;;19.78;75.49;100178.60;1649778;86;21800;-73
2021/07/26 02:24:12;;;;;;;38.28;19.35;;;;;;;19.82;75.23;100183.17;1658610;86;20931;-73
2021/07/26 02:26:39;;;;;;;33.05;22.00;;;;;;;19.85;75.02;100181.22;1634142;86;21006;-73
2021/07/26 02:29:05;;;;;;;32.55;20.77;;;;;;;19.83;75.68;100180.70;1661211;86;21535;-74
2021/07/26 02:31:32;;;;;;;39.30;20.90;;;;;;;19.79;75.82;100183.77;1660974;85;21086;-72
2021/07/26 02:33:58;;;;;;;36.05;20.88;;;;;;;19.71;76.00;100174.88;1660870;86;21206;-74
2021/07/26 02:36:24;;;;;;;31.45;20.23;;;;;;;19.74;75.73;100178.95;1660764;85;21605;-74
2021/07/26 02:38:51;;;;;;;31.90;21.10;;;;;;;19.77;75.58;100183.80;1634210;87;21530;-73
2021/07/26 02:41:17;;;;;;;30.50;21.23;;;;;;;19.73;76.20;100179.50;1644688;86;20971;-73
2021/07/26 02:43:45;;;;;;;28.85;20.43;;;;;;;19.63;76.69;100186.48;1652267;86;21123;-73
2021/07/26 02:46:11;;;;;;;40.85;19.55;;;;;;;19.54;77.12;100197.27;1632907;86;22163;-73
2021/07/26 02:48:38;;;;;;;29.50;18.75;;;;;;;19.54;76.89;100193.73;1660897;86;21561;-73
2021/07/26 02:51:05;;;;;;;36.53;21.80;;;;;;;19.54;76.93;100197.82;1660924;86;21115;-73
2021/07/26 02:53:32;;;;;;;36.23;21.65;;;;;;;19.49;77.89;100201.99;1660964;86;21091;-72
2021/07/26 02:55:58;;;;;;;32.48;21.30;;;;;;;19.49;78.04;100203.36;1634090;86;21029;-73
2021/07/26 02:58:25;;;;;;;40.00;23.15;;;;;;;19.49;77.91;100202.80;1658246;86;21838;-72
2021/07/26 03:00:51;;;;;;;34.35;21.97;;;;;;;19.49;77.75;100204.17;1623903;86;21515;-72
2021/07/26 03:03:17;;;;;;;33.30;20.92;;;;;;;19.58;77.25;100203.75;1660648;85;20942;-72
2021/07/26 03:05:44;;;;;;;38.23;21.57;;;;;;;19.66;77.00;100202.84;1644944;86;21591;-73
2021/07/26 03:08:11;;;;;;;39.48;24.02;;;;;;;19.69;77.16;100206.33;1649434;86;21491;-72
2021/07/26 03:10:37;;;;;;;37.80;21.70;;;;;;;19.64;77.14;100205.04;1657379;85;21110;-73
2021/07/26 03:13:05;;;;;;;32.25;19.92;;;;;;;19.59;77.51;100205.94;1661102;86;20963;-72
2021/07/26 03:15:31;;;;;;;32.40;19.32;;;;;;;19.63;77.29;100209.69;1658229;86;21558;-71
2021/07/26 03:17:59;;;;;;;43.83;20.55;;;;;;;19.69;76.91;100207.69;1651433;86;21075;-71
2021/07/26 03:20:26;;;;;;;35.52;22.32;;;;;;;19.72;77.31;100205.72;1626857;86;21065;-70
2021/07/26 03:25:53;;;;;;;58.70;26.17;;;;;;;19.64;77.01;100203.13;1566679;90;21062;-71
2021/07/26 03:28:19;;;;;;;38.85;18.17;;;;;;;19.70;76.25;100210.13;1532517;92;21090;-70
2021/07/26 03:30:45;;;;;;;46.73;19.05;;;;;;;19.78;76.20;100211.36;1532626;92;21660;-70
2021/07/26 03:33:12;;;;;;;48.83;22.05;;;;;;;19.85;76.14;100207.16;1558179;90;21564;-70
2021/07/26 03:35:38;;;;;;;60.10;22.82;;;;;;;19.94;75.77;100209.46;1544475;91;21554;-70
2021/07/26 03:38:07;;;;;;;43.00;18.75;;;;;;;20.03;75.52;100212.31;1520446;92;21085;-70
2021/07/26 03:40:34;;;;;;;51.98;21.20;;;;;;;20.10;75.24;100216.81;1520576;92;21001;-71
2021/07/26 03:43:04;;;;;;;53.13;22.37;;;;;;;20.17;74.93;100211.78;1545571;92;21107;-71
2021/07/26 03:45:30;;;;;;;56.30;23.77;;;;;;;20.19;74.61;100214.22;1555321;91;21108;-70
2021/07/26 03:47:59;;;;;;;69.42;24.82;;;;;;;20.16;74.85;100214.80;1564669;91;21285;-71
2021/07/26 03:50:26;;;;;;;54.05;21.35;;;;;;;20.19;74.67;100220.47;1571849;91;21504;-72
2021/07/26 03:52:54;;;;;;;45.05;20.50;;;;;;;20.24;74.64;100220.37;1566029;91;21117;-72
2021/07/26 03:55:24;;;;;;;35.15;19.80;;;;;;;20.31;74.63;100220.03;1554866;91;21114;-71
2021/07/26 03:57:53;;;;;;;34.18;19.80;;;;;;;20.41;74.55;100218.48;1546277;91;21066;-72
2021/07/26 04:00:24;;;;;;;34.63;18.95;;;;;;;20.52;74.19;100220.47;1546025;92;21165;-71
2021/07/26 04:03:21;;;;;;;36.45;20.90;;;;;;;20.63;74.05;100225.42;1531045;91;21532;-71
2021/07/26 04:05:54;;;;;;;40.52;20.97;;;;;;;20.72;73.94;100223.59;1518342;94;21059;-71
2021/07/26 04:08:22;;;;;;;45.15;20.43;;;;;;;20.79;73.98;100221.83;1521776;94;21043;-70
2021/07/26 04:10:59;;;;;;;39.53;20.15;;;;;;;20.89;73.67;100221.62;1561594;91;21009;-71
2021/07/26 04:13:17;;;;;;;31.23;17.98;;;;;;;21.02;73.06;100228.19;1545043;92;21225;-73
2021/07/26 04:15:45;;;;;;;28.50;16.97;;;;;;;21.13;72.79;100222.23;1569887;90;20937;-71
2021/07/26 04:18:13;;;;;;;30.37;18.37;;;;;;;21.26;72.67;100228.23;1575255;90;21083;-72
2021/07/26 04:20:40;;;;;;;30.68;18.70;;;;;;;21.37;72.21;100228.83;1555679;90;21050;-71
2021/07/26 04:23:06;;;;;;;36.73;21.00;;;;;;;21.49;71.82;100224.16;1580211;90;21121;-70
2021/07/26 04:25:33;;;;;;;44.50;21.02;;;;;;;21.60;71.20;100235.13;1579554;90;21072;-71
2021/07/26 04:27:59;;;;;;;38.00;19.35;;;;;;;21.67;71.04;100228.68;1580089;90;21026;-71
2021/07/26 04:30:26;;;;;;;34.10;18.57;;;;;;;21.75;70.85;100224.63;1580190;90;21077;-71
2021/07/26 04:32:52;;;;;;;26.35;16.62;;;;;;;21.83;70.66;100224.44;1580066;90;21069;-71
2021/07/26 04:35:19;;;;;;;34.10;17.67;;;;;;;21.90;70.65;100224.83;1580124;89;21027;-70
2021/07/26 04:37:45;;;;;;;19.57;15.53;;;;;;;21.97;70.76;100224.39;1544921;92;21127;-71
2021/07/26 04:40:11;;;;;;;23.92;17.42;;;;;;;22.03;70.66;100222.59;1527809;92;21146;-70
2021/07/26 04:42:39;;;;;;;23.05;18.35;;;;;;;22.09;70.11;100219.98;1528179;92;21068;-69
2021/07/26 04:45:08;;;;;;;18.77;16.50;;;;;;;22.15;69.44;100219.30;1543431;92;21142;-69
2021/07/26 04:47:34;;;;;;;18.57;15.58;;;;;;;22.21;68.72;100222.69;1550809;92;21072;-69
2021/07/26 04:50:02;;;;;;;26.15;16.62;;;;;;;22.29;68.05;100219.20;1542160;93;21178;-69
2021/07/26 04:52:28;;;;;;;17.80;15.68;;;;;;;22.34;67.68;100221.25;1553499;92;21037;-71
2021/07/26 04:54:56;;;;;;;17.07;14.63;;;;;;;22.37;67.48;100221.17;1550085;92;21023;-70
2021/07/26 04:57:23;;;;;;;22.93;16.05;;;;;;;22.42;67.46;100221.84;1523026;92;21146;-70
2021/07/26 04:59:49;;;;;;;18.10;16.12;;;;;;;22.48;67.50;100221.97;1522752;94;21122;-70
2021/07/26 05:02:15;;;;;;;21.05;15.32;;;;;;;22.58;66.33;100225.80;1516499;93;21719;-70
2021/07/26 05:04:42;;;;;;;19.37;16.10;;;;;;;22.75;65.52;100222.89;1557303;91;21546;-70
2021/07/26 05:07:08;;;;;;;16.40;13.18;;;;;;;22.92;64.71;100222.96;1533121;92;21569;-70
2021/07/26 05:09:38;;;;;;;20.30;15.60;;;;;;;23.04;64.41;100223.14;1556845;91;21070;-69
2021/07/26 05:12:08;;;;;;;18.25;14.55;;;;;;;23.11;64.28;100220.74;1557152;92;21735;-69
2021/07/26 05:14:34;;;;;;;24.18;15.63;;;;;;;23.15;64.48;100222.27;1556286;91;21055;-69
2021/07/26 05:17:01;;;;;;;19.52;15.65;;;;;;;23.17;64.60;100218.06;1545013;92;21621;-70
2021/07/26 05:19:27;;;;;;;20.60;15.58;;;;;;;23.21;64.80;100221.00;1545087;92;21573;-70
2021/07/26 05:21:53;;;;;;;22.50;17.23;;;;;;;23.23;65.27;100223.66;1544986;92;21096;-69
2021/07/26 05:24:20;;;;;;;20.80;17.62;;;;;;;23.27;65.23;100227.93;1544850;91;21107;-70
2021/07/26 05:26:48;;;;;;;16.87;13.83;;;;;;;23.31;65.72;100224.81;1522749;94;21050;-71
2021/07/26 05:29:14;;;;;;;18.40;15.20;;;;;;;23.38;65.72;100221.01;1535188;93;21695;-71
2021/07/26 05:31:40;;;;;;;21.02;16.32;;;;;;;23.39;65.85;100208.34;1539526;93;22182;-70
2021/07/26 05:34:06;;;;;;;22.95;15.98;;;;;;;23.39;66.11;100205.59;1538943;93;21130;-71
2021/07/26 05:36:33;;;;;;;21.50;16.35;;;;;;;23.43;66.43;100216.73;1533234;92;21047;-70
2021/07/26 05:38:59;;;;;;;21.02;17.27;;;;;;;23.46;66.14;100207.88;1528530;92;21268;-69
2021/07/26 05:41:26;;;;;;;19.37;16.17;;;;;;;23.57;65.30;100210.55;1528016;92;21140;-70
2021/07/26 05:43:52;;;;;;;24.47;15.90;;;;;;;23.68;64.54;100209.09;1544976;92;21450;-71
2021/07/26 05:46:19;;;;;;;18.37;14.07;;;;;;;23.79;64.16;100209.55;1521327;94;21118;-70
2021/07/26 05:48:45;;;;;;;17.07;15.10;;;;;;;23.85;63.67;100213.75;1538238;93;21099;-70
2021/07/26 05:51:12;;;;;;;14.98;13.58;;;;;;;23.88;63.40;100215.27;1514915;93;21106;-71
2021/07/26 05:53:38;;;;;;;17.50;15.70;;;;;;;23.93;63.36;100214.89;1556887;91;21651;-71
2021/07/26 05:56:06;;;;;;;22.00;16.10;;;;;;;24.01;62.52;100211.31;1569597;91;21018;-70
2021/07/26 05:58:40;;;;;;;18.15;14.60;;;;;;;24.14;61.33;100213.05;1569072;91;21774;-71
2021/07/26 06:03:47;;;;;;;22.27;15.25;;;;;;;24.38;60.22;100212.52;1543284;91;21254;-70
2021/07/26 06:06:14;;;;;;;17.87;13.08;;;;;;;24.48;59.64;100218.47;1575118;91;21032;-70
2021/07/26 06:08:42;;;;;;;20.80;15.35;;;;;;;24.53;59.39;100220.23;1588354;90;21603;-70
2021/07/26 06:11:08;;;;;;;17.32;14.83;;;;;;;24.54;59.47;100217.16;1589307;90;21151;-69
2021/07/26 06:13:34;;;;;;;19.80;14.75;;;;;;;24.60;59.26;100210.92;1567774;91;21107;-71
2021/07/26 06:16:11;;;;;;;25.15;16.00;;;;;;;24.69;58.95;100209.73;1496039;94;21058;-69
2021/07/26 06:18:35;;;;;;;19.57;14.23;;;;;;;24.84;58.33;100211.69;1496955;94;21038;-70
2021/07/26 06:21:07;;;;;;;19.80;14.83;;;;;;;24.97;57.00;100214.80;1544570;92;21173;-72
2021/07/26 06:23:34;;;;;;;22.13;14.90;;;;;;;25.06;57.00;100214.17;1543637;91;21055;-69
2021/07/26 06:26:05;;;;;;;21.42;14.95;;;;;;;25.13;56.69;100221.34;1568672;91;21575;-69
2021/07/26 06:28:30;;;;;;;19.25;13.95;;;;;;;25.11;56.65;100218.91;1568767;91;21247;-70
2021/07/26 06:30:57;;;;;;;20.62;13.60;;;;;;;25.13;56.62;100219.37;1568760;91;21210;-71
2021/07/26 06:33:23;;;;;;;22.98;16.60;;;;;;;25.20;56.17;100224.36;1542775;91;21030;-69
2021/07/26 06:35:49;;;;;;;24.40;16.82;;;;;;;25.32;55.42;100226.39;1569381;90;21087;-69
2021/07/26 06:38:16;;;;;;;26.80;16.50;;;;;;;25.41;55.42;100226.57;1574940;91;21061;-69
2021/07/26 06:40:45;;;;;;;25.85;14.43;;;;;;;25.56;56.14;100219.68;1575134;91;21793;-72
2021/07/26 06:43:11;;;;;;;20.43;14.55;;;;;;;25.64;55.64;100228.43;1569519;91;21022;-70
2021/07/26 06:45:38;;;;;;;20.82;13.80;;;;;;;25.67;55.42;100230.50;1568906;91;21148;-70
2021/07/26 06:48:05;;;;;;;25.10;15.45;;;;;;;25.71;55.12;100225.14;1569055;91;21078;-73
2021/07/26 06:50:31;;;;;;;19.87;11.85;;;;;;;25.77;54.00;100227.34;1568791;91;21082;-69
2021/07/26 06:52:58;;;;;;;14.25;12.63;;;;;;;25.90;53.28;100235.10;1543233;91;21073;-69
2021/07/26 06:55:24;;;;;;;20.70;11.38;;;;;;;25.97;53.04;100234.77;1569196;90;21019;-70
2021/07/26 06:57:50;;;;;;;22.93;12.45;;;;;;;25.99;52.71;100242.72;1569644;91;21118;-70
2021/07/26 07:00:18;;;;;;;14.93;11.38;;;;;;;26.03;52.72;100240.31;1543735;91;21064;-70
2021/07/26 07:02:46;;;;;;;13.80;11.45;;;;;;;26.07;52.71;100240.44;1569777;91;21518;-70
2021/07/26 07:05:13;;;;;;;12.88;11.48;;;;;;;26.13;52.06;100242.41;1570018;91;21504;-71
2021/07/26 07:07:40;;;;;;;13.43;10.80;;;;;;;26.20;51.58;100248.16;1569681;91;21501;-70
2021/07/26 07:10:07;;;;;;;17.82;11.93;;;;;;;26.30;51.37;100243.05;1569586;91;21039;-70
2021/07/26 07:12:33;;;;;;;17.65;11.20;;;;;;;26.40;51.22;100253.66;1569440;91;21095;-70
2021/07/26 07:15:01;;;;;;;19.55;12.70;;;;;;;26.48;51.22;100250.55;1544197;91;21050;-70
2021/07/26 07:17:27;;;;;;;13.83;10.00;;;;;;;26.57;50.52;100253.23;1565455;91;21039;-70
2021/07/26 07:19:54;;;;;;;17.52;11.22;;;;;;;26.65;48.42;100253.69;1520413;93;21004;-69
2021/07/26 07:22:20;;;;;;;13.30;9.45;;;;;;;26.69;47.90;100254.05;1544905;92;21211;-70
2021/07/26 07:24:48;;;;;;;11.55;10.45;;;;;;;26.75;47.08;100256.81;1521570;91;21105;-70
2021/07/26 07:27:14;;;;;;;15.15;10.93;;;;;;;26.77;46.30;100250.36;1575510;91;21054;-69
2021/07/26 07:29:41;;;;;;;13.85;9.13;;;;;;;26.80;46.52;100248.88;1575322;91;21086;-69
2021/07/26 07:32:12;;;;;;;11.20;10.10;;;;;;;26.83;46.38;100248.98;1558463;91;21048;-70
2021/07/26 07:34:41;;;;;;;12.30;9.88;;;;;;;26.86;47.03;100263.50;1589848;88;21049;-70
2021/07/26 07:37:09;;;;;;;15.10;10.55;;;;;;;26.95;47.40;100261.22;1575346;91;21074;-70
2021/07/26 07:39:42;;;;;;;19.55;11.15;;;;;;;27.01;47.53;100259.82;1561440;91;20990;-71
2021/07/26 07:42:06;;;;;;;11.97;10.72;;;;;;;27.07;47.62;100264.77;1566450;91;21595;-70
2021/07/26 07:44:32;;;;;;;14.25;10.08;;;;;;;27.15;47.26;100262.45;1566754;90;21607;-69
2021/07/26 07:47:00;;;;;;;13.60;10.85;;;;;;;27.19;46.54;100267.55;1566824;91;21095;-68
2021/07/26 07:49:28;;;;;;;19.00;12.45;;;;;;;27.16;46.61;100268.22;1574693;90;21070;-71
2021/07/26 07:51:55;;;;;;;16.80;11.53;;;;;;;27.15;46.59;100276.27;1592993;90;21100;-71
2021/07/26 07:54:22;;;;;;;13.00;11.43;;;;;;;27.15;46.54;100271.31;1571485;90;21443;-70
2021/07/26 07:56:51;;;;;;;10.82;9.38;;;;;;;27.16;46.42;100274.31;1591878;90;20983;-69
2021/07/26 07:59:18;;;;;;;12.25;9.93;;;;;;;27.21;46.26;100273.51;1575145;91;21032;-70
2021/07/26 08:01:45;;;;;;;11.83;10.58;;;;;;;27.25;45.79;100270.85;1575473;91;21029;-69
2021/07/26 08:04:11;;;;;;;11.70;10.55;;;;;;;27.28;45.85;100268.80;1618550;88;21613;-69
2021/07/26 08:06:41;;;;;;;10.93;9.93;;;;;;;27.33;45.93;100267.17;1618332;88;21062;-70
2021/07/26 08:09:08;;;;;;;13.48;10.38;;;;;;;27.40;45.83;100267.37;1590141;89;21042;-70
2021/07/26 08:11:34;;;;;;;29.45;12.30;;;;;;;27.45;46.13;100273.24;1592802;90;21075;-68
2021/07/26 08:14:00;;;;;;;16.00;10.30;;;;;;;27.49;46.42;100270.84;1593007;90;21020;-71
2021/07/26 08:16:26;;;;;;;10.10;9.13;;;;;;;27.58;46.29;100273.46;1592154;90;21086;-72
2021/07/26 08:18:53;;;;;;;11.25;10.15;;;;;;;27.66;45.63;100262.87;1575220;91;22167;-71
2021/07/26 08:21:21;;;;;;;13.22;11.33;;;;;;;27.73;45.55;100264.44;1576578;91;21163;-70
2021/07/26 08:23:47;;;;;;;12.23;10.88;;;;;;;27.70;45.99;100272.06;1618455;88;20974;-70
2021/07/26 08:26:14;;;;;;;13.43;12.13;;;;;;;27.72;45.94;100273.91;1605712;88;21098;-71
2021/07/26 08:28:40;;;;;;;19.85;10.08;;;;;;;27.78;46.28;100267.53;1595144;90;20979;-70
2021/07/26 08:31:06;;;;;;;11.85;9.35;;;;;;;27.89;45.59;100268.66;1568110;90;21258;-71
2021/07/26 08:33:33;;;;;;;12.98;11.57;;;;;;;27.98;45.23;100262.39;1595070;88;21015;-70
2021/07/26 08:36:01;;;;;;;11.70;10.60;;;;;;;28.05;44.95;100264.80;1595421;90;21552;-70
2021/07/26 08:38:27;;;;;;;11.78;10.30;;;;;;;28.10;44.91;100270.66;1595135;88;21051;-70
2021/07/26 08:40:53;;;;;;;14.53;10.63;;;;;;;28.13;44.88;100270.77;1595338;88;21127;-70
2021/07/26 08:43:23;;;;;;;15.83;10.00;;;;;;;28.15;44.45;100266.28;1595586;88;21090;-71
2021/07/26 08:45:48;;;;;;;13.28;9.85;;;;;;;28.16;44.60;100270.05;1568865;90;21039;-71
2021/07/26 08:48:14;;;;;;;14.50;9.68;;;;;;;28.20;44.30;100266.60;1568329;90;21039;-70
2021/07/26 08:50:42;;;;;;;10.80;9.80;;;;;;;28.25;43.68;100264.97;1595188;90;21141;-70
2021/07/26 08:53:08;;;;;;;11.43;8.83;;;;;;;28.29;43.03;100268.05;1569073;90;21626;-70
2021/07/26 08:55:36;;;;;;;12.07;10.78;;;;;;;28.33;43.35;100257.87;1568964;90;21003;-68
2021/07/26 08:58:04;;;;;;;18.32;10.20;;;;;;;28.38;42.45;100254.05;1595196;88;21046;-70
2021/07/26 09:00:32;;;;;;;13.18;10.03;;;;;;;28.42;42.59;100259.09;1594982;90;21042;-68
2021/07/26 09:02:58;;;;;;;11.65;10.50;;;;;;;28.41;42.40;100249.98;1595350;90;21495;-70
2021/07/26 09:05:24;;;;;;;11.38;9.65;;;;;;;28.41;42.66;100262.43;1595159;90;21603;-71
2021/07/26 09:07:51;;;;;;;10.72;9.50;;;;;;;28.35;43.73;100259.69;1594511;90;21133;-72
2021/07/26 09:10:24;;;;;;;9.85;8.88;;;;;;;28.32;44.15;100263.18;1594373;90;21050;-71
2021/07/26 09:12:54;;;;;;;11.22;9.95;;;;;;;28.34;43.80;100264.22;1595242;90;20997;-75
2021/07/26 09:15:30;;;;;;;15.20;9.63;;;;;;;28.31;44.28;100254.65;1595300;88;21030;-75
2021/07/26 09:18:06;;;;;;;13.85;10.98;;;;;;;28.29;44.30;100258.94;1611206;88;21085;-75
2021/07/26 09:20:34;;;;;;;13.62;11.83;;;;;;;28.27;44.12;100255.14;1597059;88;21141;-75
2021/07/26 09:23:14;;;;;;;15.28;10.40;;;;;;;28.30;44.07;100253.64;1595235;90;21628;-75
2021/07/26 09:25:42;;;;;;;11.12;9.98;;;;;;;28.32;44.17;100249.92;1612957;88;21135;-76
2021/07/26 09:28:16;;;;;;;11.83;10.60;;;;;;;28.37;43.82;100254.63;1594192;89;21054;-72
2021/07/26 09:30:51;;;;;;;9.75;8.85;;;;;;;28.38;43.13;100245.16;1594961;90;21039;-71
2021/07/26 09:33:27;;;;;;;11.85;9.33;;;;;;;28.44;42.71;100251.25;1578272;88;22013;-70
2021/07/26 09:36:17;;;;;;;9.65;8.70;;;;;;;28.47;42.63;100244.41;1617386;88;21008;-71
2021/07/26 09:38:55;;;;;;;11.88;9.08;;;;;;;28.56;43.25;100246.42;1605681;88;21540;-71
2021/07/26 09:41:45;;;;;;;9.88;8.98;;;;;;;28.78;41.98;100235.31;1594798;88;21071;-71
2021/07/26 09:44:12;;;;;;;10.93;9.03;;;;;;;28.94;41.57;100241.65;1595308;90;21542;-71
2021/07/26 09:46:39;;;;;;;10.43;8.85;;;;;;;29.06;40.38;100243.52;1595253;89;21190;-72
2021/07/26 09:49:15;;;;;;;11.15;7.53;;;;;;;29.15;40.53;100244.70;1594455;90;21092;-74
2021/07/26 09:51:42;;;;;;;12.35;8.90;;;;;;;29.24;39.37;100246.11;1543101;91;21646;-74
2021/07/26 09:54:09;;;;;;;13.43;9.23;;;;;;;29.23;39.70;100247.27;1569303;90;21030;-75
2021/07/26 09:56:35;;;;;;;9.55;8.33;;;;;;;29.26;39.22;100248.50;1588931;89;21042;-73
2021/07/26 09:59:02;;;;;;;8.33;7.25;;;;;;;29.37;39.00;100239.88;1588236;90;21288;-73
2021/07/26 10:01:30;;;;;;;8.45;7.62;;;;;;;29.49;38.87;100243.12;1588025;90;21036;-73
2021/07/26 10:03:56;;;;;;;8.85;8.05;;;;;;;29.55;38.53;100249.38;1563228;90;21630;-74
2021/07/26 10:06:23;;;;;;;8.00;7.22;;;;;;;29.48;38.56;100246.47;1587916;89;21207;-74
2021/07/26 10:08:50;;;;;;;10.53;7.40;;;;;;;29.43;38.89;100249.53;1587562;89;21102;-76
2021/07/26 10:11:17;;;;;;;8.40;7.60;;;;;;;29.40;38.75;100244.11;1569926;91;23239;-77
2021/07/26 10:13:51;;;;;;;11.20;7.97;;;;;;;29.33;38.85;100243.97;1561409;90;21552;-74
2021/07/26 10:16:16;;;;;;;8.38;7.15;;;;;;;29.32;39.07;100245.13;1588034;90;20999;-74
2021/07/26 10:18:44;;;;;;;8.58;7.67;;;;;;;29.31;38.78;100232.43;1589052;90;21108;-81
2021/07/26 10:21:16;;;;;;;13.88;8.78;;;;;;;29.29;38.70;100236.71;1589414;90;21237;-73
2021/07/26 10:23:52;;;;;;;10.50;8.48;;;;;;;29.28;39.34;100235.09;1561475;90;21220;-75
2021/07/26 10:26:21;;;;;;;8.88;8.08;;;;;;;29.40;39.13;100238.56;1555302;90;21057;-74
2021/07/26 10:28:55;;;;;;;11.22;7.85;;;;;;;29.49;38.95;100234.22;1587616;90;21171;-72
2021/07/26 10:31:35;;;;;;;14.10;8.65;;;;;;;29.57;38.01;100235.97;1587988;89;21568;-73
2021/07/26 10:34:13;;;;;;;8.90;7.95;;;;;;;29.61;37.98;100227.14;1587941;89;21094;-72
2021/07/26 10:36:47;;;;;;;11.53;8.80;;;;;;;29.70;37.58;100231.88;1587846;89;21259;-76
2021/07/26 10:39:22;;;;;;;9.88;7.42;;;;;;;29.79;37.44;100239.39;1588138;90;21153;-75
2021/07/26 10:41:55;;;;;;;10.38;8.68;;;;;;;29.77;37.49;100234.01;1588798;90;21053;-75
2021/07/26 10:44:25;;;;;;;;;;;;;;;29.72;37.64;100235.69;1566978;90;21071;-75
2021/07/26 10:46:57;;;;;;;10.43;7.67;;;;;;;29.67;36.82;100231.23;1561614;90;20193;-79
2021/07/26 10:49:53;;;;;;;11.60;9.20;;;;;;;29.61;36.94;100227.14;1603094;89;21277;-78
2021/07/26 10:52:28;;;;;;;19.48;8.98;;;;;;;29.63;37.57;100230.94;1602983;89;21117;-75
2021/07/26 10:54:57;;;;;;;9.20;7.95;;;;;;;29.63;38.40;100229.55;1570056;91;20989;-77
2021/07/26 10:57:40;;;;;;;9.93;8.93;;;;;;;29.60;38.31;100227.49;1587898;89;21039;-82
2021/07/26 11:00:16;;;;;;;12.80;9.43;;;;;;;29.58;38.34;100222.33;1563605;90;21047;-83
2021/07/26 11:02:44;;;;;;;10.48;8.65;;;;;;;29.60;37.60;100224.72;1573347;90;21758;-76
2021/07/26 11:05:31;;;;;;;9.28;8.38;;;;;;;29.61;37.04;100221.59;1587903;89;21024;-79
2021/07/26 11:08:21;;;;;;;13.60;8.58;;;;;;;29.64;37.34;100211.76;1564555;91;21068;-76
2021/07/26 11:10:48;;;;;;;8.93;7.58;;;;;;;29.70;37.79;100218.59;1563736;90;21776;-82
2021/07/26 11:13:17;;;;;;;11.12;7.75;;;;;;;29.76;37.34;100217.14;1560056;90;20988;-75
2021/07/26 11:15:47;;;;;;;15.80;7.97;;;;;;;29.78;37.45;100214.23;1539774;91;21106;-71
2021/07/26 11:18:29;;;;;;;9.90;7.58;;;;;;;29.72;37.45;100209.34;1577793;90;22544;-72
2021/07/26 11:21:00;;;;;;;8.83;7.37;;;;;;;29.73;36.96;100204.02;1544628;92;21050;-74
2021/07/26 11:23:46;;;;;;;7.33;6.63;;;;;;;29.79;36.39;100206.11;1546211;91;21082;-73
2021/07/26 11:26:16;;;;;;;18.17;9.13;;;;;;;29.88;36.50;100209.48;1578123;88;21085;-75